createdAt,value
2023-03-21T00:00:31.204Z,100.00
2023-03-21T00:02:57.706Z,100.00
2023-03-21T00:05:24.335Z,100.00
2023-03-21T00:07:51.924Z,100.00
2023-03-21T00:10:29.733Z,100.00
2023-03-21T00:13:05.743Z,100.00
2023-03-21T00:15:42.666Z,100.00
2023-03-21T00:18:12.808Z,100.00
2023-03-21T00:20:39.353Z,100.00
2023-03-21T00:23:06.109Z,100.00
2023-03-21T00:25:33.154Z,100.00
2023-03-21T00:28:07.878Z,100.00
2023-03-21T00:30:35.124Z,100.00
2023-03-21T00:33:12.121Z,100.00
2023-03-21T00:35:58.306Z,100.00
2023-03-21T00:38:29.163Z,100.00
2023-03-21T00:40:58.240Z,100.00
2023-03-21T00:43:30.038Z,100.00
2023-03-21T00:45:58.517Z,100.00
2023-03-21T00:48:26.106Z,100.00
2023-03-21T00:50:54.535Z,100.00
2023-03-21T00:53:21.893Z,100.00
2023-03-21T00:55:48.809Z,100.00
2023-03-21T00:58:16.910Z,100.00
2023-03-21T01:00:43.817Z,100.00
2023-03-21T01:03:23.689Z,100.00
2023-03-21T01:06:07.412Z,100.00
2023-03-21T01:08:50.535Z,100.00
2023-03-21T01:11:20.973Z,100.00
2023-03-21T01:13:54.711Z,100.00
2023-03-21T01:16:25.414Z,100.00
2023-03-21T01:18:52.033Z,100.00
2023-03-21T01:21:18.615Z,100.00
2023-03-21T01:23:46.018Z,100.00
2023-03-21T01:26:14.080Z,100.00
2023-03-21T01:28:42.835Z,100.00
2023-03-21T01:31:12.741Z,100.00
2023-03-21T01:33:39.814Z,100.00
2023-03-21T01:36:13.260Z,100.00
2023-03-21T01:38:41.594Z,100.00
2023-03-21T01:41:19.226Z,100.00
2023-03-21T01:43:47.344Z,100.00
2023-03-21T01:46:26.278Z,100.00
2023-03-21T01:49:02.611Z,100.00
2023-03-21T01:51:32.839Z,100.00
2023-03-21T01:54:00.647Z,100.00
2023-03-21T01:56:37.447Z,100.00
2023-03-21T01:59:14.697Z,100.00
2023-03-21T02:01:42.404Z,100.00
2023-03-21T02:04:09.661Z,100.00
2023-03-21T02:06:52.231Z,100.00
2023-03-21T02:09:24.952Z,100.00
2023-03-21T02:11:52.412Z,100.00
2023-03-21T02:14:28.949Z,100.00
2023-03-21T02:17:05.264Z,100.00
2023-03-21T02:19:53.025Z,100.00
2023-03-21T02:22:24.390Z,100.00
2023-03-21T02:25:08.374Z,100.00
2023-03-21T02:28:09.922Z,100.00
2023-03-21T02:31:17.991Z,100.00
2023-03-21T02:34:00.041Z,100.00
2023-03-21T02:36:57.363Z,100.00
2023-03-21T02:39:38.586Z,100.00
2023-03-21T02:42:20.449Z,100.00
2023-03-21T02:45:09.611Z,100.00
2023-03-21T02:47:52.622Z,100.00
2023-03-21T02:50:32.066Z,100.00
2023-03-21T02:53:00.933Z,100.00
2023-03-21T02:55:31.044Z,100.00
2023-03-21T02:58:11.701Z,100.00
2023-03-21T03:00:40.143Z,100.00
2023-03-21T03:03:11.383Z,100.00
2023-03-21T03:05:55.758Z,100.00
2023-03-21T03:08:50.077Z,100.00
2023-03-21T03:11:29.701Z,100.00
2023-03-21T03:14:35.621Z,100.00
2023-03-21T03:17:23.291Z,100.00
2023-03-21T03:20:15.529Z,100.00
2023-03-21T03:22:54.000Z,100.00
2023-03-21T03:25:42.199Z,100.00
2023-03-21T03:28:10.773Z,100.00
2023-03-21T03:30:46.585Z,100.00
2023-03-21T03:33:17.923Z,100.00
2023-03-21T03:35:53.041Z,100.00
2023-03-21T03:38:31.716Z,100.00
2023-03-21T03:41:04.570Z,100.00
2023-03-21T03:43:46.888Z,100.00
2023-03-21T03:46:36.687Z,100.00
2023-03-21T03:49:21.593Z,100.00
2023-03-21T03:52:12.080Z,100.00
2023-03-21T03:54:43.077Z,100.00
2023-03-21T03:57:11.889Z,100.00
2023-03-21T03:59:40.653Z,100.00
2023-03-21T04:02:07.720Z,100.00
2023-03-21T04:04:35.123Z,100.00
2023-03-21T04:07:03.566Z,100.00
2023-03-21T04:09:43.067Z,100.00
2023-03-21T04:12:12.812Z,100.00
2023-03-21T04:14:45.578Z,100.00
2023-03-21T04:17:13.789Z,100.00
2023-03-21T04:19:40.306Z,100.00
2023-03-21T04:22:07.336Z,100.00
2023-03-21T04:24:34.337Z,100.00
2023-03-21T04:27:01.092Z,100.00
2023-03-21T04:29:29.855Z,100.00
2023-03-21T04:31:56.896Z,100.00
2023-03-21T04:34:27.966Z,100.00
2023-03-21T04:36:55.371Z,100.00
2023-03-21T04:39:22.251Z,100.00
2023-03-21T04:41:49.641Z,100.00
2023-03-21T04:44:17.442Z,100.00
2023-03-21T04:46:44.119Z,100.00
2023-03-21T04:49:10.873Z,100.00
2023-03-21T04:51:37.918Z,100.00
2023-03-21T04:54:05.926Z,100.00
2023-03-21T04:56:33.795Z,100.00
2023-03-21T04:59:02.817Z,100.00
2023-03-21T05:01:32.124Z,100.00
2023-03-21T05:03:59.908Z,100.00
2023-03-21T05:06:27.794Z,100.00
2023-03-21T05:08:56.735Z,100.00
2023-03-21T05:11:23.364Z,100.00
2023-03-21T05:13:49.956Z,100.00
2023-03-21T05:16:16.595Z,100.00
2023-03-21T05:18:43.216Z,100.00
2023-03-21T05:21:10.755Z,100.00
2023-03-21T05:23:38.387Z,100.00
2023-03-21T05:26:08.583Z,100.00
2023-03-21T05:28:36.743Z,100.00
2023-03-21T05:31:04.430Z,100.00
2023-03-21T05:33:31.203Z,100.00
2023-03-21T05:35:58.196Z,100.00
2023-03-21T05:38:25.795Z,100.00
2023-03-21T05:40:54.528Z,100.00
2023-03-21T05:43:21.125Z,100.00
2023-03-21T05:45:48.405Z,100.00
2023-03-21T05:48:15.396Z,100.00
2023-03-21T05:50:42.355Z,100.00
2023-03-21T05:53:09.463Z,100.00
2023-03-21T05:55:36.791Z,100.00
2023-03-21T05:58:03.901Z,100.00
2023-03-21T06:00:30.850Z,100.00
2023-03-21T06:02:57.432Z,100.00
2023-03-21T06:05:23.976Z,100.00
2023-03-21T06:07:50.637Z,100.00
2023-03-21T06:10:17.228Z,100.00
2023-03-21T06:12:43.853Z,100.00
2023-03-21T06:15:10.883Z,100.00
2023-03-21T06:17:37.415Z,100.00
2023-03-21T06:20:05.412Z,100.00
2023-03-21T06:22:32.680Z,100.00
2023-03-21T06:24:59.289Z,100.00
2023-03-21T06:27:25.863Z,100.00
2023-03-21T06:29:52.939Z,100.00
2023-03-21T06:32:19.822Z,100.00
2023-03-21T06:34:47.215Z,100.00
2023-03-21T06:37:13.745Z,100.00
2023-03-21T06:39:40.315Z,100.00
2023-03-21T06:42:06.949Z,100.00
2023-03-21T06:44:33.559Z,100.00
2023-03-21T06:47:00.126Z,100.00
2023-03-21T06:49:27.467Z,100.00
2023-03-21T06:51:54.328Z,100.00
2023-03-21T06:54:21.062Z,100.00
2023-03-21T06:56:47.713Z,100.00
2023-03-21T06:59:14.536Z,100.00
2023-03-21T07:01:41.126Z,100.00
2023-03-21T07:04:07.761Z,100.00
2023-03-21T07:06:34.451Z,100.00
2023-03-21T07:09:03.027Z,100.00
2023-03-21T07:11:29.566Z,100.00
2023-03-21T07:13:56.207Z,100.00
2023-03-21T07:16:22.853Z,100.00
2023-03-21T07:18:49.467Z,100.00
2023-03-21T07:21:16.370Z,100.00
2023-03-21T07:23:42.941Z,100.00
2023-03-21T07:26:09.848Z,100.00
2023-03-21T07:28:36.858Z,100.00
2023-03-21T07:31:06.470Z,100.00
2023-03-21T07:33:33.988Z,100.00
2023-03-21T07:36:01.941Z,100.00
2023-03-21T07:38:30.653Z,100.00
2023-03-21T07:40:58.982Z,100.00
2023-03-21T07:43:25.684Z,100.00
2023-03-21T07:45:57.246Z,100.00
2023-03-21T07:48:24.116Z,100.00
2023-03-21T07:50:51.145Z,100.00
2023-03-21T07:53:17.754Z,100.00
2023-03-21T07:55:44.322Z,100.00
2023-03-21T07:58:11.186Z,100.00
2023-03-21T08:00:37.709Z,100.00
2023-03-21T08:03:04.350Z,100.00
2023-03-21T08:05:35.609Z,100.00
2023-03-21T08:08:02.768Z,100.00
2023-03-21T08:10:29.641Z,100.00
2023-03-21T08:12:56.447Z,100.00
2023-03-21T08:15:23.045Z,100.00
2023-03-21T08:17:49.818Z,100.00
2023-03-21T08:20:22.354Z,100.00
2023-03-21T08:22:49.689Z,100.00
2023-03-21T08:25:19.403Z,100.00
2023-03-21T08:27:46.921Z,100.00
2023-03-21T08:30:15.810Z,100.00
2023-03-21T08:32:42.901Z,100.00
2023-03-21T08:35:12.148Z,100.00
2023-03-21T08:37:40.895Z,100.00
2023-03-21T08:40:11.455Z,100.00
2023-03-21T08:42:39.420Z,100.00
2023-03-21T08:45:07.157Z,100.00
2023-03-21T08:47:33.703Z,100.00
2023-03-21T08:50:00.367Z,100.00
2023-03-21T08:52:27.637Z,100.00
2023-03-21T08:54:54.581Z,100.00
2023-03-21T08:57:21.364Z,100.00
2023-03-21T08:59:47.945Z,100.00
2023-03-21T09:02:16.211Z,100.00
2023-03-21T09:04:43.957Z,100.00
2023-03-21T09:07:12.518Z,100.00
2023-03-21T09:09:39.436Z,100.00
2023-03-21T09:12:06.180Z,100.00
2023-03-21T09:14:33.352Z,100.00
2023-03-21T09:17:00.337Z,100.00
2023-03-21T09:19:27.891Z,100.00
2023-03-21T09:21:55.795Z,100.00
2023-03-21T09:24:22.842Z,100.00
2023-03-21T09:26:51.864Z,100.00
2023-03-21T09:29:20.956Z,100.00
2023-03-21T09:31:48.236Z,100.00
2023-03-21T09:34:15.831Z,100.00
2023-03-21T09:36:44.367Z,100.00
2023-03-21T09:39:12.736Z,100.00
2023-03-21T09:42:06.602Z,100.00
2023-03-21T09:44:54.258Z,100.00
2023-03-21T09:47:33.139Z,100.00
2023-03-21T09:50:14.072Z,100.00
2023-03-21T09:53:01.531Z,100.00
2023-03-21T09:55:31.926Z,100.00
2023-03-21T09:58:09.488Z,100.00
2023-03-21T10:00:45.696Z,100.00
2023-03-21T10:03:35.163Z,100.00
2023-03-21T10:06:10.033Z,100.00
2023-03-21T10:08:43.220Z,100.00
2023-03-21T10:11:19.620Z,100.00
2023-03-21T10:13:55.378Z,100.00
2023-03-21T10:16:36.292Z,100.00
2023-03-21T10:19:13.128Z,100.00
2023-03-21T10:22:03.467Z,100.00
2023-03-21T10:24:34.037Z,100.00
2023-03-21T10:27:02.615Z,100.00
2023-03-21T10:29:39.004Z,100.00
2023-03-21T10:32:09.844Z,100.00
2023-03-21T10:34:41.808Z,100.00
2023-03-21T10:37:08.758Z,100.00
2023-03-21T10:39:39.698Z,100.00
2023-03-21T10:42:06.939Z,100.00
2023-03-21T10:44:35.607Z,100.00
2023-03-21T10:47:08.204Z,100.00
2023-03-21T10:49:56.388Z,100.00
2023-03-21T10:52:28.649Z,100.00
2023-03-21T10:55:21.632Z,99.41
2023-03-21T10:57:53.142Z,96.74
2023-03-21T11:00:25.697Z,85.77
2023-03-21T11:02:53.965Z,64.38
2023-03-21T11:05:27.362Z,52.96
2023-03-21T11:08:11.756Z,46.28
2023-03-21T11:10:51.556Z,42.40
2023-03-21T11:13:24.525Z,39.03
2023-03-21T11:15:56.621Z,36.84
2023-03-21T11:18:30.984Z,33.11
2023-03-21T11:21:03.775Z,31.65
2023-03-21T11:23:34.207Z,30.10
2023-03-21T11:26:02.942Z,29.12
2023-03-21T11:28:37.662Z,29.29
2023-03-21T11:31:06.829Z,28.69
2023-03-21T11:33:51.049Z,28.45
2023-03-21T11:36:20.785Z,30.05
2023-03-21T11:38:53.092Z,31.98
2023-03-21T11:41:25.616Z,34.21
2023-03-21T11:43:53.599Z,34.93
2023-03-21T11:46:25.638Z,36.13
2023-03-21T11:48:52.882Z,37.49
2023-03-21T11:51:41.238Z,39.46
2023-03-21T11:54:23.833Z,41.89
2023-03-21T11:56:58.908Z,42.90
2023-03-21T11:59:42.961Z,44.39
2023-03-21T12:02:28.219Z,46.75
2023-03-21T12:04:58.861Z,48.88
2023-03-21T12:07:34.504Z,48.38
2023-03-21T12:10:10.751Z,48.23
2023-03-21T12:12:47.376Z,47.89
2023-03-21T12:15:16.876Z,46.08
2023-03-21T12:18:08.023Z,46.11
2023-03-21T12:20:37.491Z,43.47
2023-03-21T12:23:12.892Z,39.80
2023-03-21T12:26:03.545Z,37.67
2023-03-21T12:28:42.986Z,36.50
2023-03-21T12:31:25.592Z,37.04
2023-03-21T12:34:12.584Z,38.30
2023-03-21T12:37:17.814Z,41.16
2023-03-21T12:39:47.818Z,42.84
2023-03-21T12:42:35.781Z,45.18
2023-03-21T12:45:15.865Z,47.27
2023-03-21T12:47:48.639Z,49.12
2023-03-21T12:50:37.941Z,51.56
2023-03-21T12:53:27.101Z,53.73
2023-03-21T12:55:57.477Z,56.60
2023-03-21T12:58:28.270Z,58.66
2023-03-21T13:00:58.408Z,61.52
2023-03-21T13:03:39.934Z,63.97
2023-03-21T13:06:10.724Z,67.94
2023-03-21T13:08:42.036Z,67.30
2023-03-21T13:11:13.882Z,69.37
2023-03-21T13:13:51.726Z,72.63
2023-03-21T13:16:24.076Z,73.83
2023-03-21T13:18:54.702Z,75.05
2023-03-21T13:21:21.197Z,76.21
2023-03-21T13:24:22.932Z,79.86
2023-03-21T13:27:00.721Z,85.88
2023-03-21T13:29:44.333Z,88.24
2023-03-21T13:32:29.745Z,92.19
2023-03-21T13:35:15.694Z,96.56
2023-03-21T13:37:49.105Z,98.92
2023-03-21T13:40:29.118Z,100.00
2023-03-21T13:42:59.909Z,100.00
2023-03-21T13:45:44.761Z,100.00
2023-03-21T13:48:32.074Z,100.00
2023-03-21T13:51:04.134Z,100.00
2023-03-21T13:53:37.985Z,100.00
2023-03-21T13:56:22.504Z,100.00
2023-03-21T13:58:48.971Z,100.00
2023-03-21T14:01:35.713Z,100.00
2023-03-21T14:04:12.353Z,100.00
2023-03-21T14:07:12.759Z,100.00
2023-03-21T14:09:40.787Z,100.00
2023-03-21T14:12:14.025Z,100.00
2023-03-21T14:14:45.908Z,100.00
2023-03-21T14:17:13.618Z,100.00
2023-03-21T14:19:40.325Z,100.00
2023-03-21T14:22:13.668Z,100.00
2023-03-21T14:24:41.308Z,100.00
2023-03-21T14:27:08.819Z,100.00
2023-03-21T14:29:35.870Z,100.00
2023-03-21T14:32:03.693Z,100.00
2023-03-21T14:34:34.690Z,100.00
2023-03-21T14:37:01.211Z,100.00
2023-03-21T14:39:33.162Z,100.00
2023-03-21T14:42:09.338Z,100.00
2023-03-21T14:44:54.809Z,100.00
2023-03-21T14:47:24.368Z,100.00
2023-03-21T14:49:51.345Z,100.00
2023-03-21T14:52:34.343Z,100.00
2023-03-21T14:55:02.606Z,100.00
2023-03-21T14:57:32.414Z,100.00
2023-03-21T15:00:02.265Z,100.00
2023-03-21T15:02:38.735Z,100.00
2023-03-21T15:05:33.241Z,100.00
2023-03-21T15:08:11.632Z,100.00
2023-03-21T15:10:38.831Z,100.00
2023-03-21T15:13:18.664Z,100.00
2023-03-21T15:15:46.077Z,100.00
2023-03-21T15:18:17.488Z,100.00
2023-03-21T15:20:48.412Z,100.00
2023-03-21T15:23:30.311Z,100.00
2023-03-21T15:25:57.222Z,100.00
2023-03-21T15:28:25.998Z,100.00
2023-03-21T15:30:53.602Z,100.00
2023-03-21T15:33:23.279Z,100.00
2023-03-21T15:35:54.138Z,100.00
2023-03-21T15:38:41.120Z,100.00
2023-03-21T15:41:34.632Z,100.00
2023-03-21T15:44:14.705Z,100.00
2023-03-21T15:46:48.277Z,100.00
2023-03-21T15:49:14.843Z,100.00
2023-03-21T15:51:44.870Z,100.00
2023-03-21T15:54:16.253Z,100.00
2023-03-21T15:56:46.114Z,100.00
2023-03-21T15:59:18.125Z,100.00
2023-03-21T16:01:49.681Z,100.00
2023-03-21T16:04:18.489Z,100.00
2023-03-21T16:07:16.048Z,100.00
2023-03-21T16:09:46.139Z,100.00
2023-03-21T16:12:16.001Z,100.00
2023-03-21T16:14:43.643Z,100.00
2023-03-21T16:17:28.972Z,100.00
2023-03-21T16:19:55.843Z,100.00
2023-03-21T16:22:22.518Z,100.00
2023-03-21T16:24:49.437Z,100.00
2023-03-21T16:27:17.532Z,100.00
2023-03-21T16:29:44.089Z,100.00
2023-03-21T16:32:17.091Z,100.00
2023-03-21T16:34:44.729Z,100.00
2023-03-21T16:37:12.206Z,100.00
2023-03-21T16:39:39.305Z,100.00
2023-03-21T16:42:05.921Z,100.00
2023-03-21T16:44:33.768Z,100.00
2023-03-21T16:47:02.376Z,100.00
2023-03-21T16:49:29.140Z,100.00
2023-03-21T16:51:57.143Z,100.00
2023-03-21T16:54:23.745Z,100.00
2023-03-21T16:56:55.151Z,100.00
2023-03-21T16:59:22.323Z,100.00
2023-03-21T17:01:49.139Z,100.00
2023-03-21T17:04:17.221Z,100.00
2023-03-21T17:06:50.069Z,100.00
2023-03-21T17:09:19.975Z,100.00
2023-03-21T17:11:47.019Z,100.00
2023-03-21T17:14:16.875Z,100.00
2023-03-21T17:16:43.970Z,100.00
2023-03-21T17:19:20.662Z,100.00
2023-03-21T17:21:47.499Z,100.00
2023-03-21T17:24:14.089Z,100.00
2023-03-21T17:26:40.733Z,100.00
2023-03-21T17:29:07.415Z,100.00
2023-03-21T17:31:38.031Z,100.00
2023-03-21T17:34:04.721Z,100.00
2023-03-21T17:36:37.274Z,100.00
2023-03-21T17:39:06.869Z,100.00
2023-03-21T17:41:33.850Z,100.00
2023-03-21T17:44:00.706Z,100.00
2023-03-21T17:46:29.098Z,100.00
2023-03-21T17:48:56.743Z,100.00
2023-03-21T17:51:26.077Z,100.00
2023-03-21T17:53:52.796Z,100.00
2023-03-21T17:56:26.414Z,100.00
2023-03-21T17:58:53.990Z,100.00
2023-03-21T18:01:20.924Z,100.00
2023-03-21T18:03:47.508Z,100.00
2023-03-21T18:06:20.870Z,100.00
2023-03-21T18:08:48.268Z,100.00
2023-03-21T18:11:16.781Z,100.00
2023-03-21T18:13:44.731Z,100.00
2023-03-21T18:16:20.537Z,100.00
2023-03-21T18:18:47.252Z,100.00
2023-03-21T18:21:18.212Z,100.00
2023-03-21T18:23:46.558Z,100.00
2023-03-21T18:26:17.059Z,100.00
2023-03-21T18:28:44.850Z,100.00
2023-03-21T18:31:19.810Z,100.00
2023-03-21T18:33:48.583Z,100.00
2023-03-21T18:36:24.833Z,100.00
2023-03-21T18:38:52.621Z,100.00
2023-03-21T18:41:19.835Z,100.00
2023-03-21T18:44:04.659Z,100.00
2023-03-21T18:46:33.488Z,100.00
2023-03-21T18:49:13.125Z,100.00
2023-03-21T18:51:47.939Z,100.00
2023-03-21T18:54:15.541Z,100.00
2023-03-21T18:59:39.038Z,100.00
2023-03-21T19:02:06.510Z,100.00
2023-03-21T19:04:34.223Z,100.00
2023-03-21T19:07:01.085Z,100.00
2023-03-21T19:09:31.639Z,100.00
2023-03-21T19:11:58.890Z,100.00
2023-03-21T19:14:25.518Z,100.00
2023-03-21T19:19:39.507Z,100.00
2023-03-21T19:22:06.335Z,100.00
2023-03-21T19:24:32.914Z,100.00
2023-03-21T19:26:59.532Z,100.00
2023-03-21T19:29:26.184Z,100.00
2023-03-21T19:31:53.026Z,100.00
2023-03-21T19:34:20.787Z,100.00
2023-03-21T19:36:51.613Z,100.00
2023-03-21T19:39:22.287Z,100.00
2023-03-21T19:41:50.209Z,100.00
2023-03-21T19:44:16.958Z,100.00
2023-03-21T19:46:43.652Z,100.00
2023-03-21T19:49:11.063Z,100.00
2023-03-21T19:51:37.689Z,100.00
2023-03-21T19:54:05.978Z,100.00
2023-03-21T19:56:34.519Z,100.00
2023-03-21T19:59:02.969Z,100.00
2023-03-21T20:01:30.479Z,100.00
2023-03-21T20:03:57.128Z,100.00
2023-03-21T20:06:24.309Z,100.00
2023-03-21T20:11:41.147Z,100.00
2023-03-21T20:14:07.792Z,100.00
2023-03-21T20:16:36.624Z,100.00
2023-03-21T20:19:05.952Z,100.00
2023-03-21T20:21:42.243Z,100.00
2023-03-21T20:24:12.964Z,100.00
2023-03-21T20:26:39.779Z,100.00
2023-03-21T20:29:56.430Z,100.00
2023-03-21T20:31:55.712Z,100.00
2023-03-21T20:34:22.234Z,100.00
2023-03-21T20:36:49.084Z,100.00
2023-03-21T20:39:15.953Z,100.00
2023-03-21T20:41:42.529Z,100.00
2023-03-21T20:46:57.274Z,100.00
2023-03-21T20:49:24.342Z,100.00
2023-03-21T20:52:49.395Z,100.00
2023-03-21T20:54:37.580Z,100.00
2023-03-21T20:57:04.880Z,100.00
2023-03-21T20:59:31.511Z,100.00
2023-03-21T21:01:58.581Z,100.00
2023-03-21T21:04:46.730Z,100.00
2023-03-21T21:07:17.201Z,100.00
2023-03-21T21:09:44.923Z,100.00
2023-03-21T21:12:13.181Z,100.00
2023-03-21T21:14:40.829Z,100.00
2023-03-21T21:17:46.952Z,100.00
2023-03-21T21:19:54.529Z,100.00
2023-03-21T21:22:21.189Z,100.00
2023-03-21T21:24:48.013Z,100.00
2023-03-21T21:27:14.587Z,100.00
2023-03-21T21:29:43.288Z,100.00
2023-03-21T21:32:11.202Z,100.00
2023-03-21T21:34:38.275Z,100.00
2023-03-21T21:37:05.163Z,100.00
2023-03-21T21:39:37.802Z,100.00
2023-03-21T21:42:05.250Z,100.00
2023-03-21T21:44:33.139Z,100.00
2023-03-21T21:46:59.853Z,100.00
2023-03-21T21:49:27.003Z,100.00
2023-03-21T21:51:53.629Z,100.00
2023-03-21T21:54:20.183Z,100.00
2023-03-21T21:56:48.604Z,100.00
2023-03-21T21:59:18.310Z,100.00
2023-03-21T22:01:46.630Z,100.00
2023-03-21T22:04:14.576Z,100.00
2023-03-21T22:06:42.310Z,100.00
2023-03-21T22:09:09.633Z,100.00
2023-03-21T22:11:36.707Z,100.00
2023-03-21T22:14:03.700Z,100.00
2023-03-21T22:16:30.682Z,100.00
2023-03-21T22:18:57.323Z,100.00
2023-03-21T22:21:24.008Z,100.00
2023-03-21T22:23:50.597Z,100.00
2023-03-21T22:26:17.205Z,100.00
2023-03-21T22:28:43.803Z,100.00
2023-03-21T22:31:13.298Z,100.00
2023-03-21T22:33:39.999Z,100.00
2023-03-21T22:36:06.969Z,100.00
2023-03-21T22:38:34.497Z,100.00
2023-03-21T22:41:05.349Z,100.00
2023-03-21T22:43:34.124Z,100.00
2023-03-21T22:46:02.481Z,100.00
2023-03-21T22:48:32.726Z,100.00
2023-03-21T22:51:00.531Z,100.00
2023-03-21T22:53:27.128Z,100.00
2023-03-21T22:55:53.982Z,100.00
2023-03-21T22:58:20.794Z,100.00
2023-03-21T23:00:47.447Z,100.00
2023-03-21T23:03:16.648Z,100.00
2023-03-21T23:05:44.706Z,100.00
2023-03-21T23:08:11.689Z,100.00
2023-03-21T23:10:40.453Z,100.00
2023-03-21T23:13:07.146Z,100.00
2023-03-21T23:15:33.775Z,100.00
2023-03-21T23:18:00.412Z,100.00
2023-03-21T23:20:26.986Z,100.00
2023-03-21T23:22:53.549Z,100.00
2023-03-21T23:25:20.601Z,100.00
2023-03-21T23:27:47.388Z,100.00
2023-03-21T23:30:14.147Z,100.00
2023-03-21T23:32:40.823Z,100.00
2023-03-21T23:35:08.230Z,100.00
2023-03-21T23:37:34.763Z,100.00
2023-03-21T23:40:01.351Z,100.00
2023-03-21T23:42:29.217Z,100.00
2023-03-21T23:44:56.074Z,100.00
2023-03-21T23:47:22.729Z,100.00
2023-03-21T23:49:50.118Z,100.00
2023-03-21T23:52:16.692Z,100.00
2023-03-21T23:54:43.446Z,100.00
2023-03-21T23:57:11.034Z,100.00
2023-03-21T23:59:37.607Z,100.00
